sensor_id;sensor_type;location;lat;lon;timestamp;temperature;humidity
13416;DHT22;6779;50.150;8.680;2022-07-29T00:02:02;21.80;99.90
13416;DHT22;6779;50.150;8.680;2022-07-29T00:04:28;21.80;99.90
13416;DHT22;6779;50.150;8.680;2022-07-29T00:06:54;21.80;99.90
13416;DHT22;6779;50.150;8.680;2022-07-29T00:09:19;21.70;99.90
13416;DHT22;6779;50.150;8.680;2022-07-29T00:11:45;21.70;99.90
13416;DHT22;6779;50.150;8.680;2022-07-29T00:14:10;21.70;99.90
13416;DHT22;6779;50.150;8.680;2022-07-29T00:16:36;21.70;99.90
13416;DHT22;6779;50.150;8.680;2022-07-29T00:19:02;21.70;99.90
13416;DHT22;6779;50.150;8.680;2022-07-29T00:21:28;21.70;99.90
13416;DHT22;6779;50.150;8.680;2022-07-29T00:23:54;21.60;99.90
13416;DHT22;6779;50.150;8.680;2022-07-29T00:26:19;21.60;99.90
13416;DHT22;6779;50.150;8.680;2022-07-29T00:28:45;21.60;99.90
13416;DHT22;6779;50.150;8.680;2022-07-29T00:31:10;21.60;99.90
13416;DHT22;6779;50.150;8.680;2022-07-29T00:33:36;21.60;99.90
13416;DHT22;6779;50.150;8.680;2022-07-29T00:36:02;21.60;99.90
13416;DHT22;6779;50.150;8.680;2022-07-29T00:38:28;21.50;99.90
13416;DHT22;6779;50.150;8.680;2022-07-29T00:40:53;21.60;99.90
13416;DHT22;6779;50.150;8.680;2022-07-29T00:43:19;21.60;99.90
13416;DHT22;6779;50.150;8.680;2022-07-29T00:45:46;21.70;99.90
13416;DHT22;6779;50.150;8.680;2022-07-29T00:48:11;21.60;99.90
13416;DHT22;6779;50.150;8.680;2022-07-29T00:50:37;21.60;99.90
13416;DHT22;6779;50.150;8.680;2022-07-29T00:53:05;21.50;99.90
13416;DHT22;6779;50.150;8.680;2022-07-29T00:55:31;21.60;99.90
13416;DHT22;6779;50.150;8.680;2022-07-29T00:57:57;21.60;99.90
13416;DHT22;6779;50.150;8.680;2022-07-29T01:00:24;21.70;99.90
13416;DHT22;6779;50.150;8.680;2022-07-29T01:02:50;21.60;99.90
13416;DHT22;6779;50.150;8.680;2022-07-29T01:05:18;21.60;99.90
13416;DHT22;6779;50.150;8.680;2022-07-29T01:07:44;21.60;99.90
13416;DHT22;6779;50.150;8.680;2022-07-29T01:10:12;21.70;99.90
13416;DHT22;6779;50.150;8.680;2022-07-29T01:12:38;21.70;99.90
13416;DHT22;6779;50.150;8.680;2022-07-29T01:15:06;21.70;99.90
13416;DHT22;6779;50.150;8.680;2022-07-29T01:17:38;21.80;99.90
13416;DHT22;6779;50.150;8.680;2022-07-29T01:22:56;21.80;99.90
13416;DHT22;6779;50.150;8.680;2022-07-29T01:28:39;21.70;99.90
13416;DHT22;6779;50.150;8.680;2022-07-29T01:31:11;21.80;99.90
13416;DHT22;6779;50.150;8.680;2022-07-29T01:33:43;21.80;99.90
13416;DHT22;6779;50.150;8.680;2022-07-29T01:36:25;21.80;99.90
13416;DHT22;6779;50.150;8.680;2022-07-29T01:39:31;21.80;99.90
13416;DHT22;6779;50.150;8.680;2022-07-29T01:42:12;21.80;99.90
13416;DHT22;6779;50.150;8.680;2022-07-29T01:44:48;21.80;99.90
13416;DHT22;6779;50.150;8.680;2022-07-29T01:47:19;21.80;99.90
13416;DHT22;6779;50.150;8.680;2022-07-29T01:49:48;21.80;99.90
13416;DHT22;6779;50.150;8.680;2022-07-29T01:52:23;21.80;99.90
13416;DHT22;6779;50.150;8.680;2022-07-29T01:54:55;21.80;99.90
13416;DHT22;6779;50.150;8.680;2022-07-29T01:57:24;21.70;99.90
13416;DHT22;6779;50.150;8.680;2022-07-29T01:59:52;21.60;99.90
13416;DHT22;6779;50.150;8.680;2022-07-29T02:02:19;21.60;99.90
13416;DHT22;6779;50.150;8.680;2022-07-29T02:04:46;21.50;99.90
13416;DHT22;6779;50.150;8.680;2022-07-29T02:07:19;21.50;99.90
13416;DHT22;6779;50.150;8.680;2022-07-29T02:09:46;21.40;99.90
13416;DHT22;6779;50.150;8.680;2022-07-29T02:12:13;21.40;99.90
13416;DHT22;6779;50.150;8.680;2022-07-29T02:14:44;21.30;99.90
13416;DHT22;6779;50.150;8.680;2022-07-29T02:17:12;21.30;99.90
13416;DHT22;6779;50.150;8.680;2022-07-29T02:19:39;21.30;99.90
13416;DHT22;6779;50.150;8.680;2022-07-29T02:22:06;21.30;99.90
13416;DHT22;6779;50.150;8.680;2022-07-29T02:24:33;21.30;99.90
13416;DHT22;6779;50.150;8.680;2022-07-29T02:27:01;21.30;99.90
13416;DHT22;6779;50.150;8.680;2022-07-29T02:29:28;21.20;99.90
13416;DHT22;6779;50.150;8.680;2022-07-29T02:31:57;21.20;99.90
13416;DHT22;6779;50.150;8.680;2022-07-29T02:34:24;21.20;99.90
13416;DHT22;6779;50.150;8.680;2022-07-29T02:36:51;21.10;99.90
13416;DHT22;6779;50.150;8.680;2022-07-29T02:39:18;21.10;99.90
13416;DHT22;6779;50.150;8.680;2022-07-29T02:41:50;21.00;99.90
13416;DHT22;6779;50.150;8.680;2022-07-29T02:44:21;21.10;99.90
13416;DHT22;6779;50.150;8.680;2022-07-29T02:47:13;21.00;99.90
13416;DHT22;6779;50.150;8.680;2022-07-29T02:52:22;21.00;99.90
13416;DHT22;6779;50.150;8.680;2022-07-29T02:55:09;20.90;99.90
13416;DHT22;6779;50.150;8.680;2022-07-29T02:57:49;20.90;99.90
13416;DHT22;6779;50.150;8.680;2022-07-29T03:00:17;20.90;99.90
13416;DHT22;6779;50.150;8.680;2022-07-29T03:02:45;20.80;99.90
13416;DHT22;6779;50.150;8.680;2022-07-29T03:05:17;20.80;99.90
13416;DHT22;6779;50.150;8.680;2022-07-29T03:07:46;20.70;99.90
13416;DHT22;6779;50.150;8.680;2022-07-29T03:10:13;20.70;99.90
13416;DHT22;6779;50.150;8.680;2022-07-29T03:12:40;20.60;99.90
13416;DHT22;6779;50.150;8.680;2022-07-29T03:15:06;20.60;99.90
13416;DHT22;6779;50.150;8.680;2022-07-29T03:17:33;20.50;99.90
13416;DHT22;6779;50.150;8.680;2022-07-29T03:19:59;20.50;99.90
13416;DHT22;6779;50.150;8.680;2022-07-29T03:22:26;20.40;99.90
13416;DHT22;6779;50.150;8.680;2022-07-29T03:24:52;20.40;99.90
13416;DHT22;6779;50.150;8.680;2022-07-29T03:27:17;20.40;99.90
13416;DHT22;6779;50.150;8.680;2022-07-29T03:29:43;20.30;99.90
13416;DHT22;6779;50.150;8.680;2022-07-29T03:32:08;20.20;99.90
13416;DHT22;6779;50.150;8.680;2022-07-29T03:34:35;20.20;99.90
13416;DHT22;6779;50.150;8.680;2022-07-29T03:37:01;20.20;99.90
13416;DHT22;6779;50.150;8.680;2022-07-29T03:39:31;20.20;99.90
13416;DHT22;6779;50.150;8.680;2022-07-29T03:41:59;20.20;99.90
13416;DHT22;6779;50.150;8.680;2022-07-29T03:44:26;20.10;99.90
13416;DHT22;6779;50.150;8.680;2022-07-29T03:46:53;20.10;99.90
13416;DHT22;6779;50.150;8.680;2022-07-29T03:49:21;20.10;99.90
13416;DHT22;6779;50.150;8.680;2022-07-29T03:51:47;20.00;99.90
13416;DHT22;6779;50.150;8.680;2022-07-29T03:54:13;20.00;99.90
13416;DHT22;6779;50.150;8.680;2022-07-29T03:56:42;20.00;99.90
13416;DHT22;6779;50.150;8.680;2022-07-29T03:59:09;19.90;99.90
13416;DHT22;6779;50.150;8.680;2022-07-29T04:01:37;19.90;99.90
13416;DHT22;6779;50.150;8.680;2022-07-29T04:04:04;19.90;99.90
13416;DHT22;6779;50.150;8.680;2022-07-29T04:06:41;19.80;99.90
13416;DHT22;6779;50.150;8.680;2022-07-29T04:09:07;19.70;99.90
13416;DHT22;6779;50.150;8.680;2022-07-29T04:11:33;19.70;99.90
13416;DHT22;6779;50.150;8.680;2022-07-29T04:13:59;19.70;99.90
13416;DHT22;6779;50.150;8.680;2022-07-29T04:16:25;19.70;99.90
13416;DHT22;6779;50.150;8.680;2022-07-29T04:18:50;19.60;99.90
13416;DHT22;6779;50.150;8.680;2022-07-29T04:21:16;19.70;99.90
13416;DHT22;6779;50.150;8.680;2022-07-29T04:23:41;19.70;99.90
13416;DHT22;6779;50.150;8.680;2022-07-29T04:26:10;19.70;99.90
13416;DHT22;6779;50.150;8.680;2022-07-29T04:28:36;19.70;99.90
13416;DHT22;6779;50.150;8.680;2022-07-29T04:31:03;19.60;99.90
13416;DHT22;6779;50.150;8.680;2022-07-29T04:33:29;19.50;99.90
13416;DHT22;6779;50.150;8.680;2022-07-29T04:35:54;19.50;99.90
13416;DHT22;6779;50.150;8.680;2022-07-29T04:38:20;19.50;99.90
13416;DHT22;6779;50.150;8.680;2022-07-29T04:40:45;19.60;99.90
13416;DHT22;6779;50.150;8.680;2022-07-29T04:43:11;19.50;99.90
13416;DHT22;6779;50.150;8.680;2022-07-29T04:45:36;19.50;99.90
13416;DHT22;6779;50.150;8.680;2022-07-29T04:48:02;19.50;99.90
13416;DHT22;6779;50.150;8.680;2022-07-29T04:50:28;19.50;99.90
13416;DHT22;6779;50.150;8.680;2022-07-29T04:52:53;19.40;99.90
13416;DHT22;6779;50.150;8.680;2022-07-29T04:55:19;19.40;99.90
13416;DHT22;6779;50.150;8.680;2022-07-29T04:57:45;19.40;99.90
13416;DHT22;6779;50.150;8.680;2022-07-29T05:00:10;19.40;99.90
13416;DHT22;6779;50.150;8.680;2022-07-29T05:02:36;19.30;99.90
13416;DHT22;6779;50.150;8.680;2022-07-29T05:05:02;19.30;99.90
13416;DHT22;6779;50.150;8.680;2022-07-29T05:07:27;19.30;99.90
13416;DHT22;6779;50.150;8.680;2022-07-29T05:09:53;19.30;99.90
13416;DHT22;6779;50.150;8.680;2022-07-29T05:12:19;19.30;99.90
13416;DHT22;6779;50.150;8.680;2022-07-29T05:14:44;19.40;99.90
13416;DHT22;6779;50.150;8.680;2022-07-29T05:17:10;19.40;99.90
13416;DHT22;6779;50.150;8.680;2022-07-29T05:19:35;19.40;99.90
13416;DHT22;6779;50.150;8.680;2022-07-29T05:22:01;19.40;99.90
13416;DHT22;6779;50.150;8.680;2022-07-29T05:24:26;19.40;99.90
13416;DHT22;6779;50.150;8.680;2022-07-29T05:26:52;19.50;99.90
13416;DHT22;6779;50.150;8.680;2022-07-29T05:29:18;19.50;99.90
13416;DHT22;6779;50.150;8.680;2022-07-29T05:31:43;19.50;99.90
13416;DHT22;6779;50.150;8.680;2022-07-29T05:34:09;19.50;99.90
13416;DHT22;6779;50.150;8.680;2022-07-29T05:36:34;19.50;99.90
13416;DHT22;6779;50.150;8.680;2022-07-29T05:39:00;19.50;99.90
13416;DHT22;6779;50.150;8.680;2022-07-29T05:41:26;19.60;99.90
13416;DHT22;6779;50.150;8.680;2022-07-29T05:43:51;19.60;99.90
13416;DHT22;6779;50.150;8.680;2022-07-29T05:46:17;19.60;99.90
13416;DHT22;6779;50.150;8.680;2022-07-29T05:48:42;19.60;99.90
13416;DHT22;6779;50.150;8.680;2022-07-29T05:51:08;19.70;99.90
13416;DHT22;6779;50.150;8.680;2022-07-29T05:53:33;19.70;99.90
13416;DHT22;6779;50.150;8.680;2022-07-29T05:56:03;19.60;99.90
13416;DHT22;6779;50.150;8.680;2022-07-29T05:58:29;19.60;99.90
13416;DHT22;6779;50.150;8.680;2022-07-29T06:00:54;19.60;99.90
13416;DHT22;6779;50.150;8.680;2022-07-29T06:03:24;19.70;99.90
13416;DHT22;6779;50.150;8.680;2022-07-29T06:05:50;19.70;99.90
13416;DHT22;6779;50.150;8.680;2022-07-29T06:08:16;19.80;99.90
13416;DHT22;6779;50.150;8.680;2022-07-29T06:10:42;19.90;99.90
13416;DHT22;6779;50.150;8.680;2022-07-29T06:13:08;20.00;99.90
13416;DHT22;6779;50.150;8.680;2022-07-29T06:15:34;20.10;99.90
13416;DHT22;6779;50.150;8.680;2022-07-29T06:17:59;20.10;99.90
13416;DHT22;6779;50.150;8.680;2022-07-29T06:20:25;20.10;99.90
13416;DHT22;6779;50.150;8.680;2022-07-29T06:22:52;20.10;99.90
13416;DHT22;6779;50.150;8.680;2022-07-29T06:25:17;20.20;99.90
13416;DHT22;6779;50.150;8.680;2022-07-29T06:27:43;20.20;99.90
13416;DHT22;6779;50.150;8.680;2022-07-29T06:30:09;20.30;99.90
13416;DHT22;6779;50.150;8.680;2022-07-29T06:32:35;20.30;99.90
13416;DHT22;6779;50.150;8.680;2022-07-29T06:35:01;20.50;99.90
13416;DHT22;6779;50.150;8.680;2022-07-29T06:37:26;20.50;99.90
13416;DHT22;6779;50.150;8.680;2022-07-29T06:39:52;20.50;99.90
13416;DHT22;6779;50.150;8.680;2022-07-29T06:42:39;20.60;99.90
13416;DHT22;6779;50.150;8.680;2022-07-29T06:45:07;20.60;99.90
13416;DHT22;6779;50.150;8.680;2022-07-29T06:47:32;20.60;99.90
13416;DHT22;6779;50.150;8.680;2022-07-29T06:49:58;20.80;99.90
13416;DHT22;6779;50.150;8.680;2022-07-29T06:52:23;20.80;99.90
13416;DHT22;6779;50.150;8.680;2022-07-29T06:54:50;20.80;99.90
13416;DHT22;6779;50.150;8.680;2022-07-29T06:57:16;20.90;99.90
13416;DHT22;6779;50.150;8.680;2022-07-29T06:59:41;20.90;99.90
13416;DHT22;6779;50.150;8.680;2022-07-29T07:02:07;21.00;99.90
13416;DHT22;6779;50.150;8.680;2022-07-29T07:04:33;21.00;99.90
13416;DHT22;6779;50.150;8.680;2022-07-29T07:06:58;21.20;99.90
13416;DHT22;6779;50.150;8.680;2022-07-29T07:09:25;21.40;99.90
13416;DHT22;6779;50.150;8.680;2022-07-29T07:11:50;21.30;99.90
13416;DHT22;6779;50.150;8.680;2022-07-29T07:14:16;21.40;99.90
13416;DHT22;6779;50.150;8.680;2022-07-29T07:16:41;21.40;99.90
13416;DHT22;6779;50.150;8.680;2022-07-29T07:19:07;21.40;99.90
13416;DHT22;6779;50.150;8.680;2022-07-29T07:21:33;21.50;99.90
13416;DHT22;6779;50.150;8.680;2022-07-29T07:23:59;21.60;99.90
13416;DHT22;6779;50.150;8.680;2022-07-29T07:26:25;21.60;99.90
13416;DHT22;6779;50.150;8.680;2022-07-29T07:28:50;21.70;99.90
13416;DHT22;6779;50.150;8.680;2022-07-29T07:31:16;21.80;99.90
13416;DHT22;6779;50.150;8.680;2022-07-29T07:33:41;21.80;99.90
13416;DHT22;6779;50.150;8.680;2022-07-29T07:36:07;21.90;99.90
13416;DHT22;6779;50.150;8.680;2022-07-29T07:38:33;21.90;99.90
13416;DHT22;6779;50.150;8.680;2022-07-29T07:40:59;22.00;99.90
13416;DHT22;6779;50.150;8.680;2022-07-29T07:43:24;22.10;99.90
13416;DHT22;6779;50.150;8.680;2022-07-29T07:45:50;22.10;99.90
13416;DHT22;6779;50.150;8.680;2022-07-29T07:48:15;22.20;99.90
13416;DHT22;6779;50.150;8.680;2022-07-29T07:50:41;22.20;99.90
13416;DHT22;6779;50.150;8.680;2022-07-29T07:53:07;22.40;99.90
13416;DHT22;6779;50.150;8.680;2022-07-29T07:55:32;22.50;99.90
13416;DHT22;6779;50.150;8.680;2022-07-29T07:57:58;22.60;99.90
13416;DHT22;6779;50.150;8.680;2022-07-29T08:00:23;22.60;99.90
13416;DHT22;6779;50.150;8.680;2022-07-29T08:02:49;22.70;99.90
13416;DHT22;6779;50.150;8.680;2022-07-29T08:05:15;22.80;99.90
13416;DHT22;6779;50.150;8.680;2022-07-29T08:07:44;22.90;99.90
13416;DHT22;6779;50.150;8.680;2022-07-29T08:10:10;23.00;99.90
13416;DHT22;6779;50.150;8.680;2022-07-29T08:12:36;23.00;99.90
13416;DHT22;6779;50.150;8.680;2022-07-29T08:15:02;23.10;99.90
13416;DHT22;6779;50.150;8.680;2022-07-29T08:17:28;23.10;99.90
13416;DHT22;6779;50.150;8.680;2022-07-29T08:19:53;23.10;99.90
13416;DHT22;6779;50.150;8.680;2022-07-29T08:22:19;23.20;99.90
13416;DHT22;6779;50.150;8.680;2022-07-29T08:24:45;23.30;99.90
13416;DHT22;6779;50.150;8.680;2022-07-29T08:27:21;23.30;99.90
13416;DHT22;6779;50.150;8.680;2022-07-29T08:29:47;23.30;99.90
13416;DHT22;6779;50.150;8.680;2022-07-29T08:32:13;23.40;99.90
13416;DHT22;6779;50.150;8.680;2022-07-29T08:34:38;23.50;99.90
13416;DHT22;6779;50.150;8.680;2022-07-29T08:37:04;23.70;99.90
13416;DHT22;6779;50.150;8.680;2022-07-29T08:39:30;23.90;99.90
13416;DHT22;6779;50.150;8.680;2022-07-29T08:41:55;24.00;99.90
13416;DHT22;6779;50.150;8.680;2022-07-29T08:44:21;24.00;99.90
13416;DHT22;6779;50.150;8.680;2022-07-29T08:46:48;24.00;99.90
13416;DHT22;6779;50.150;8.680;2022-07-29T08:49:15;24.10;99.90
13416;DHT22;6779;50.150;8.680;2022-07-29T08:51:41;24.20;99.90
13416;DHT22;6779;50.150;8.680;2022-07-29T08:54:09;24.20;99.90
13416;DHT22;6779;50.150;8.680;2022-07-29T08:56:35;24.40;99.90
13416;DHT22;6779;50.150;8.680;2022-07-29T08:59:04;24.50;99.90
13416;DHT22;6779;50.150;8.680;2022-07-29T09:01:32;24.60;99.90
13416;DHT22;6779;50.150;8.680;2022-07-29T09:03:59;24.80;99.90
13416;DHT22;6779;50.150;8.680;2022-07-29T09:06:30;25.00;99.90
13416;DHT22;6779;50.150;8.680;2022-07-29T09:08:59;25.20;99.90
13416;DHT22;6779;50.150;8.680;2022-07-29T09:11:25;25.40;99.90
13416;DHT22;6779;50.150;8.680;2022-07-29T09:13:51;25.70;99.90
13416;DHT22;6779;50.150;8.680;2022-07-29T09:16:16;25.90;99.90
13416;DHT22;6779;50.150;8.680;2022-07-29T09:18:45;26.10;99.90
13416;DHT22;6779;50.150;8.680;2022-07-29T09:21:14;26.40;99.90
13416;DHT22;6779;50.150;8.680;2022-07-29T09:24:08;27.00;99.90
13416;DHT22;6779;50.150;8.680;2022-07-29T09:26:40;28.10;99.90
13416;DHT22;6779;50.150;8.680;2022-07-29T09:29:18;29.40;99.90
13416;DHT22;6779;50.150;8.680;2022-07-29T09:31:46;30.80;99.90
13416;DHT22;6779;50.150;8.680;2022-07-29T09:34:15;32.40;99.90
13416;DHT22;6779;50.150;8.680;2022-07-29T09:36:44;32.80;99.90
13416;DHT22;6779;50.150;8.680;2022-07-29T09:39:12;33.00;99.90
13416;DHT22;6779;50.150;8.680;2022-07-29T09:41:52;33.50;99.90
13416;DHT22;6779;50.150;8.680;2022-07-29T09:44:22;33.70;99.90
13416;DHT22;6779;50.150;8.680;2022-07-29T09:46:59;34.40;99.90
13416;DHT22;6779;50.150;8.680;2022-07-29T09:49:32;35.10;99.90
13416;DHT22;6779;50.150;8.680;2022-07-29T09:52:07;34.80;99.90
13416;DHT22;6779;50.150;8.680;2022-07-29T09:54:33;35.50;99.90
13416;DHT22;6779;50.150;8.680;2022-07-29T09:57:05;35.50;99.90
13416;DHT22;6779;50.150;8.680;2022-07-29T09:59:31;35.80;99.90
13416;DHT22;6779;50.150;8.680;2022-07-29T10:01:57;36.60;7.00
13416;DHT22;6779;50.150;8.680;2022-07-29T10:04:23;36.40;99.90
13416;DHT22;6779;50.150;8.680;2022-07-29T10:06:58;37.60;99.90
13416;DHT22;6779;50.150;8.680;2022-07-29T10:09:25;36.30;99.90
13416;DHT22;6779;50.150;8.680;2022-07-29T10:12:12;36.70;99.90
13416;DHT22;6779;50.150;8.680;2022-07-29T10:14:41;36.90;99.90
13416;DHT22;6779;50.150;8.680;2022-07-29T10:17:08;36.90;99.90
13416;DHT22;6779;50.150;8.680;2022-07-29T10:19:35;36.50;99.90
13416;DHT22;6779;50.150;8.680;2022-07-29T10:22:05;35.10;99.90
13416;DHT22;6779;50.150;8.680;2022-07-29T10:24:32;34.70;99.90
13416;DHT22;6779;50.150;8.680;2022-07-29T10:27:01;35.00;99.90
13416;DHT22;6779;50.150;8.680;2022-07-29T10:29:28;35.70;99.90
13416;DHT22;6779;50.150;8.680;2022-07-29T10:32:17;36.10;99.90
13416;DHT22;6779;50.150;8.680;2022-07-29T10:40:32;36.90;99.90
13416;DHT22;6779;50.150;8.680;2022-07-29T10:43:28;38.00;99.90
13416;DHT22;6779;50.150;8.680;2022-07-29T10:45:57;39.10;99.90
13416;DHT22;6779;50.150;8.680;2022-07-29T10:48:24;37.90;99.90
13416;DHT22;6779;50.150;8.680;2022-07-29T10:53:25;37.90;99.90
13416;DHT22;6779;50.150;8.680;2022-07-29T10:56:27;38.00;99.90
13416;DHT22;6779;50.150;8.680;2022-07-29T10:59:28;38.00;99.90
13416;DHT22;6779;50.150;8.680;2022-07-29T11:01:56;38.20;99.90
13416;DHT22;6779;50.150;8.680;2022-07-29T11:07:10;37.70;99.90
13416;DHT22;6779;50.150;8.680;2022-07-29T11:09:35;37.80;99.90
13416;DHT22;6779;50.150;8.680;2022-07-29T11:12:01;37.90;99.90
13416;DHT22;6779;50.150;8.680;2022-07-29T11:14:58;38.20;99.90
13416;DHT22;6779;50.150;8.680;2022-07-29T11:17:25;37.60;99.90
13416;DHT22;6779;50.150;8.680;2022-07-29T11:19:51;36.80;99.90
13416;DHT22;6779;50.150;8.680;2022-07-29T11:22:33;37.00;99.90
13416;DHT22;6779;50.150;8.680;2022-07-29T11:25:16;37.30;99.90
13416;DHT22;6779;50.150;8.680;2022-07-29T11:27:42;37.50;99.90
13416;DHT22;6779;50.150;8.680;2022-07-29T11:30:09;38.10;99.90
13416;DHT22;6779;50.150;8.680;2022-07-29T11:32:40;39.10;99.90
13416;DHT22;6779;50.150;8.680;2022-07-29T11:37:40;39.40;99.90
13416;DHT22;6779;50.150;8.680;2022-07-29T11:45:19;38.10;99.90
13416;DHT22;6779;50.150;8.680;2022-07-29T11:50:13;37.00;99.90
13416;DHT22;6779;50.150;8.680;2022-07-29T11:52:44;36.50;99.90
13416;DHT22;6779;50.150;8.680;2022-07-29T11:55:16;35.70;99.90
13416;DHT22;6779;50.150;8.680;2022-07-29T11:57:54;35.00;99.90
13416;DHT22;6779;50.150;8.680;2022-07-29T12:00:31;34.70;99.90
13416;DHT22;6779;50.150;8.680;2022-07-29T12:03:00;34.70;99.90
13416;DHT22;6779;50.150;8.680;2022-07-29T12:05:40;34.80;99.90
13416;DHT22;6779;50.150;8.680;2022-07-29T12:08:08;34.50;99.90
13416;DHT22;6779;50.150;8.680;2022-07-29T12:10:34;33.70;99.90
13416;DHT22;6779;50.150;8.680;2022-07-29T12:13:00;33.00;99.90
13416;DHT22;6779;50.150;8.680;2022-07-29T12:15:26;32.80;99.90
13416;DHT22;6779;50.150;8.680;2022-07-29T12:17:51;32.20;99.90
13416;DHT22;6779;50.150;8.680;2022-07-29T12:20:29;32.30;99.90
13416;DHT22;6779;50.150;8.680;2022-07-29T12:22:56;32.60;99.90
13416;DHT22;6779;50.150;8.680;2022-07-29T12:25:23;32.80;99.90
13416;DHT22;6779;50.150;8.680;2022-07-29T12:28:00;33.00;99.90
13416;DHT22;6779;50.150;8.680;2022-07-29T12:31:12;32.50;99.90
13416;DHT22;6779;50.150;8.680;2022-07-29T12:33:28;32.50;99.90
13416;DHT22;6779;50.150;8.680;2022-07-29T12:35:57;32.40;99.90
13416;DHT22;6779;50.150;8.680;2022-07-29T12:38:23;31.80;99.90
13416;DHT22;6779;50.150;8.680;2022-07-29T12:40:49;31.50;99.90
13416;DHT22;6779;50.150;8.680;2022-07-29T12:43:21;31.70;99.90
13416;DHT22;6779;50.150;8.680;2022-07-29T12:45:49;31.70;99.90
13416;DHT22;6779;50.150;8.680;2022-07-29T12:48:16;31.60;99.90
13416;DHT22;6779;50.150;8.680;2022-07-29T12:50:59;31.60;99.90
13416;DHT22;6779;50.150;8.680;2022-07-29T12:53:25;32.10;99.90
13416;DHT22;6779;50.150;8.680;2022-07-29T12:55:53;32.20;99.90
13416;DHT22;6779;50.150;8.680;2022-07-29T12:58:37;32.00;99.90
13416;DHT22;6779;50.150;8.680;2022-07-29T13:01:11;32.00;99.90
13416;DHT22;6779;50.150;8.680;2022-07-29T13:06:44;31.30;99.90
13416;DHT22;6779;50.150;8.680;2022-07-29T13:09:18;31.30;99.90
13416;DHT22;6779;50.150;8.680;2022-07-29T13:11:49;31.40;99.90
13416;DHT22;6779;50.150;8.680;2022-07-29T13:14:38;31.50;99.90
13416;DHT22;6779;50.150;8.680;2022-07-29T13:17:21;31.60;99.90
13416;DHT22;6779;50.150;8.680;2022-07-29T13:20:05;31.70;99.90
13416;DHT22;6779;50.150;8.680;2022-07-29T13:22:31;31.40;99.90
13416;DHT22;6779;50.150;8.680;2022-07-29T13:24:58;31.30;99.90
13416;DHT22;6779;50.150;8.680;2022-07-29T13:27:29;31.40;99.90
13416;DHT22;6779;50.150;8.680;2022-07-29T13:29:59;31.50;99.90
13416;DHT22;6779;50.150;8.680;2022-07-29T13:32:27;31.30;99.90
13416;DHT22;6779;50.150;8.680;2022-07-29T13:34:53;31.50;99.90
13416;DHT22;6779;50.150;8.680;2022-07-29T13:37:19;31.70;99.90
13416;DHT22;6779;50.150;8.680;2022-07-29T13:39:45;31.70;99.90
13416;DHT22;6779;50.150;8.680;2022-07-29T13:42:11;31.70;99.90
13416;DHT22;6779;50.150;8.680;2022-07-29T13:44:40;31.60;99.90
13416;DHT22;6779;50.150;8.680;2022-07-29T13:47:07;31.50;99.90
13416;DHT22;6779;50.150;8.680;2022-07-29T13:49:33;31.30;99.90
13416;DHT22;6779;50.150;8.680;2022-07-29T13:51:58;31.40;99.90
13416;DHT22;6779;50.150;8.680;2022-07-29T13:54:24;31.50;99.90
13416;DHT22;6779;50.150;8.680;2022-07-29T13:56:50;31.70;99.90
13416;DHT22;6779;50.150;8.680;2022-07-29T13:59:16;31.70;99.90
13416;DHT22;6779;50.150;8.680;2022-07-29T14:01:42;31.80;99.90
13416;DHT22;6779;50.150;8.680;2022-07-29T14:04:08;31.70;99.90
13416;DHT22;6779;50.150;8.680;2022-07-29T14:06:34;31.40;99.90
13416;DHT22;6779;50.150;8.680;2022-07-29T14:09:00;31.20;99.90
13416;DHT22;6779;50.150;8.680;2022-07-29T14:11:25;31.10;99.90
13416;DHT22;6779;50.150;8.680;2022-07-29T14:13:51;31.00;99.90
13416;DHT22;6779;50.150;8.680;2022-07-29T14:16:17;30.80;99.90
13416;DHT22;6779;50.150;8.680;2022-07-29T14:18:42;30.50;99.90
13416;DHT22;6779;50.150;8.680;2022-07-29T14:21:08;30.50;99.90
13416;DHT22;6779;50.150;8.680;2022-07-29T14:23:33;30.20;99.90
13416;DHT22;6779;50.150;8.680;2022-07-29T14:25:59;30.10;99.90
13416;DHT22;6779;50.150;8.680;2022-07-29T14:28:25;30.10;99.90
13416;DHT22;6779;50.150;8.680;2022-07-29T14:30:50;29.90;99.90
13416;DHT22;6779;50.150;8.680;2022-07-29T14:33:16;29.70;99.90
13416;DHT22;6779;50.150;8.680;2022-07-29T14:35:42;29.40;99.90
13416;DHT22;6779;50.150;8.680;2022-07-29T14:38:07;28.80;99.90
13416;DHT22;6779;50.150;8.680;2022-07-29T14:40:33;28.10;99.90
13416;DHT22;6779;50.150;8.680;2022-07-29T14:42:59;27.70;99.90
13416;DHT22;6779;50.150;8.680;2022-07-29T14:45:24;27.50;99.90
13416;DHT22;6779;50.150;8.680;2022-07-29T14:47:50;27.40;99.90
13416;DHT22;6779;50.150;8.680;2022-07-29T14:50:16;27.40;99.90
13416;DHT22;6779;50.150;8.680;2022-07-29T14:52:42;27.40;99.90
13416;DHT22;6779;50.150;8.680;2022-07-29T14:55:08;27.50;99.90
13416;DHT22;6779;50.150;8.680;2022-07-29T14:57:34;27.60;99.90
13416;DHT22;6779;50.150;8.680;2022-07-29T15:00:00;27.70;99.90
13416;DHT22;6779;50.150;8.680;2022-07-29T15:02:27;27.70;99.90
13416;DHT22;6779;50.150;8.680;2022-07-29T15:04:52;27.80;99.90
13416;DHT22;6779;50.150;8.680;2022-07-29T15:07:18;27.90;99.90
13416;DHT22;6779;50.150;8.680;2022-07-29T15:09:43;28.00;99.90
13416;DHT22;6779;50.150;8.680;2022-07-29T15:12:11;28.10;99.90
13416;DHT22;6779;50.150;8.680;2022-07-29T15:14:37;28.10;99.90
13416;DHT22;6779;50.150;8.680;2022-07-29T15:17:02;28.10;99.90
13416;DHT22;6779;50.150;8.680;2022-07-29T15:19:28;28.10;99.90
13416;DHT22;6779;50.150;8.680;2022-07-29T15:21:53;28.10;99.90
13416;DHT22;6779;50.150;8.680;2022-07-29T15:24:20;28.10;99.90
13416;DHT22;6779;50.150;8.680;2022-07-29T15:26:46;28.10;99.90
13416;DHT22;6779;50.150;8.680;2022-07-29T15:29:12;28.10;99.90
13416;DHT22;6779;50.150;8.680;2022-07-29T15:31:38;28.20;99.90
13416;DHT22;6779;50.150;8.680;2022-07-29T15:34:04;28.20;99.90
13416;DHT22;6779;50.150;8.680;2022-07-29T15:36:30;28.10;99.90
13416;DHT22;6779;50.150;8.680;2022-07-29T15:38:56;28.10;99.90
13416;DHT22;6779;50.150;8.680;2022-07-29T15:41:21;28.20;99.90
13416;DHT22;6779;50.150;8.680;2022-07-29T15:43:48;28.20;99.90
13416;DHT22;6779;50.150;8.680;2022-07-29T15:46:15;28.20;99.90
13416;DHT22;6779;50.150;8.680;2022-07-29T15:49:01;28.30;99.90
13416;DHT22;6779;50.150;8.680;2022-07-29T15:51:27;28.30;99.90
13416;DHT22;6779;50.150;8.680;2022-07-29T15:53:53;28.40;99.90
13416;DHT22;6779;50.150;8.680;2022-07-29T15:56:19;28.40;99.90
13416;DHT22;6779;50.150;8.680;2022-07-29T15:58:44;28.40;99.90
13416;DHT22;6779;50.150;8.680;2022-07-29T16:01:10;28.50;99.90
13416;DHT22;6779;50.150;8.680;2022-07-29T16:03:36;28.40;99.90
13416;DHT22;6779;50.150;8.680;2022-07-29T16:06:01;28.40;99.90
13416;DHT22;6779;50.150;8.680;2022-07-29T16:08:27;28.30;99.90
13416;DHT22;6779;50.150;8.680;2022-07-29T16:10:52;28.20;99.90
13416;DHT22;6779;50.150;8.680;2022-07-29T16:13:18;28.10;99.90
13416;DHT22;6779;50.150;8.680;2022-07-29T16:15:44;28.10;99.90
13416;DHT22;6779;50.150;8.680;2022-07-29T16:18:09;28.10;99.90
13416;DHT22;6779;50.150;8.680;2022-07-29T16:20:35;28.00;99.90
13416;DHT22;6779;50.150;8.680;2022-07-29T16:23:02;28.00;99.90
13416;DHT22;6779;50.150;8.680;2022-07-29T16:25:28;27.90;99.90